Aeroporto :
LOGIN :

Iscrizione | Disclaimer

   EN    FR    IT 

 










Sommario :    VFR   VFR Marginale   IFR   IFR Intensivo   IFR Molto Intensivo
Visibilità : 
Base nubi : 
>= 8 km
>= 3000ft
5 / 8 km
1000 / 3000 ft
1500m / 5 km
500 / 1000 ft
800 / 1500m
200 / 500 ft
< 800m
< 200 ft
Simboli :   Temporali  Nebbia  Neve Forte  Precipitazioni Forti  Vento > 20 kt
SIGMETs :   Varie  Temporali  Ghiacco  Turbolenza  Onda orograficha  Ceneri Vulcaniche






- Altitudine del aeroporto : 1768 ft


LEHC - Huesca Pirineos

ULTIMO METAR :
  • 192330Z AUTO 36002KT CAVOK 03/01 Q1018

METARs OBSOLETI :
  • 192300Z AUTO 35003KT CAVOK 05/01 Q1018
  • 192230Z AUTO 36002KT CAVOK 06/00 Q1018
  • 192200Z AUTO 36001KT CAVOK 07/01 Q1018
  • 192130Z AUTO 01003KT CAVOK 08/01 Q1018
  • 192100Z AUTO VRB02KT CAVOK 07/01 Q1018
  • 192030Z AUTO 26005KT CAVOK 10/M01 Q1018
  • 192000Z AUTO 27004KT CAVOK 08/01 Q1018
  • 191930Z AUTO 29003KT CAVOK 07/01 Q1018
  • 191900Z AUTO 29003KT CAVOK 10/02 Q1018

TAF TAF LEHC
Valido dal 19 a 15 ore il 20 a 15 ore UTC


191400Z 1915/2015 VRB04KT 9999 FEW020 TX24/2014Z TN07/2006Z



MetMap, La meteo Aeronautica in un colpo d'occhio ! - Copyright ORBIFLY Dicembre 2007 - Disclaimer

ORBIFLY MET'MAP TEAM :

Programmazione e sviluppo : Alexandra Zaïnal
Concezione : Baudouin d'Aumeries
Supporto tecnico e logistico : Manuel Goepfert
Aiuto : Marc-Olivier Méhu
Aiuto per la traduzione : Arnaldo La Scala




FONTI E CREDITI :

   NOAA